sensor_id;sensor_type;location;lat;lon;timestamp;pressure;altitude;pressure_sealevel;temperature;humidity
68197;BME280;55019;49.382;11.358;2022-09-01T02:39:26;96946.16;;;15.23;77.92
68197;BME280;55019;49.382;11.358;2022-09-01T02:41:53;96935.94;;;15.07;78.25
68197;BME280;55019;49.382;11.358;2022-09-01T02:44:19;96915.63;;;14.82;78.44
68197;BME280;55019;49.382;11.358;2022-09-01T02:46:49;96936.59;;;14.95;78.77
68197;BME280;55019;49.382;11.358;2022-09-01T02:49:18;96932.00;;;14.82;79.08
68197;BME280;55019;49.382;11.358;2022-09-01T02:51:55;96915.53;;;14.75;79.14
68197;BME280;55019;49.382;11.358;2022-09-01T02:54:26;96904.03;;;14.84;78.30
68197;BME280;55019;49.382;11.358;2022-09-01T02:56:52;96923.94;;;14.77;78.78
68197;BME280;55019;49.382;11.358;2022-09-01T02:59:22;96934.53;;;14.90;78.58
68197;BME280;55019;49.382;11.358;2022-09-01T03:01:50;96934.69;;;15.03;77.92
68197;BME280;55019;49.382;11.358;2022-09-01T03:04:17;96910.75;;;14.79;78.46
68197;BME280;55019;49.382;11.358;2022-09-01T03:06:43;96926.34;;;14.79;77.86
68197;BME280;55019;49.382;11.358;2022-09-01T03:09:21;96923.25;;;14.54;78.82
68197;BME280;55019;49.382;11.358;2022-09-01T03:11:52;96949.78;;;14.64;78.82
68197;BME280;55019;49.382;11.358;2022-09-01T03:15:00;96906.81;;;14.54;79.10
68197;BME280;55019;49.382;11.358;2022-09-01T03:17:27;96905.56;;;14.50;79.02
68197;BME280;55019;49.382;11.358;2022-09-01T03:19:52;96925.38;;;14.37;79.55
68197;BME280;55019;49.382;11.358;2022-09-01T03:22:21;96907.38;;;14.13;79.96
68197;BME280;55019;49.382;11.358;2022-09-01T03:24:47;96921.22;;;14.28;80.20
68197;BME280;55019;49.382;11.358;2022-09-01T03:27:15;96919.97;;;14.24;79.85
68197;BME280;55019;49.382;11.358;2022-09-01T03:33:26;96950.66;;;14.43;79.75
68197;BME280;55019;49.382;11.358;2022-09-01T03:35:53;96933.53;;;14.34;80.09
68197;BME280;55019;49.382;11.358;2022-09-01T03:38:25;96921.78;;;14.38;79.48
68197;BME280;55019;49.382;11.358;2022-09-01T03:41:11;96944.28;;;14.31;80.34
68197;BME280;55019;49.382;11.358;2022-09-01T03:43:44;96932.13;;;14.09;81.42
68197;BME280;55019;49.382;11.358;2022-09-01T03:46:51;96910.84;;;14.05;80.76
68197;BME280;55019;49.382;11.358;2022-09-01T03:49:26;96909.94;;;13.98;81.11
68197;BME280;55019;49.382;11.358;2022-09-01T03:51:59;96924.66;;;14.06;81.39
68197;BME280;55019;49.382;11.358;2022-09-01T03:55:26;96906.25;;;13.93;81.71
68197;BME280;55019;49.382;11.358;2022-09-01T03:57:59;96908.25;;;14.05;81.07
68197;BME280;55019;49.382;11.358;2022-09-01T04:00:28;96914.72;;;14.09;81.18
68197;BME280;55019;49.382;11.358;2022-09-01T04:03:30;96896.84;;;13.92;81.63
68197;BME280;55019;49.382;11.358;2022-09-01T04:06:00;96908.34;;;13.97;81.83
68197;BME280;55019;49.382;11.358;2022-09-01T04:08:26;96922.31;;;14.19;81.20
68197;BME280;55019;49.382;11.358;2022-09-01T04:11:16;96926.56;;;14.12;81.61
68197;BME280;55019;49.382;11.358;2022-09-01T04:13:43;96919.88;;;14.17;81.34
68197;BME280;55019;49.382;11.358;2022-09-01T04:16:23;96928.75;;;14.23;80.98
68197;BME280;55019;49.382;11.358;2022-09-01T04:19:07;96914.19;;;14.14;80.75
68197;BME280;55019;49.382;11.358;2022-09-01T04:22:05;96919.63;;;14.04;81.38
68197;BME280;55019;49.382;11.358;2022-09-01T04:24:33;96938.25;;;14.16;81.20
68197;BME280;55019;49.382;11.358;2022-09-01T04:27:00;96901.97;;;14.00;81.37
68197;BME280;55019;49.382;11.358;2022-09-01T04:29:27;96925.00;;;14.03;81.27
68197;BME280;55019;49.382;11.358;2022-09-01T04:31:57;96919.72;;;13.96;81.35
68197;BME280;55019;49.382;11.358;2022-09-01T04:34:30;96926.53;;;13.97;81.04
68197;BME280;55019;49.382;11.358;2022-09-01T04:37:18;96915.28;;;13.82;81.89
68197;BME280;55019;49.382;11.358;2022-09-01T04:39:53;96943.19;;;14.03;81.43
68197;BME280;55019;49.382;11.358;2022-09-01T04:42:19;96954.16;;;14.13;81.51
68197;BME280;55019;49.382;11.358;2022-09-01T04:44:49;96928.19;;;14.13;80.57
68197;BME280;55019;49.382;11.358;2022-09-01T04:47:15;96944.25;;;14.16;81.20
68197;BME280;55019;49.382;11.358;2022-09-01T04:49:45;96939.50;;;13.97;81.62
68197;BME280;55019;49.382;11.358;2022-09-01T04:52:13;96922.41;;;14.03;81.19
68197;BME280;55019;49.382;11.358;2022-09-01T04:54:42;96921.94;;;14.22;80.88
68197;BME280;55019;49.382;11.358;2022-09-01T04:57:36;96921.03;;;14.15;81.13
68197;BME280;55019;49.382;11.358;2022-09-01T05:00:02;96922.75;;;14.22;80.46
68197;BME280;55019;49.382;11.358;2022-09-01T05:02:40;96926.63;;;14.41;79.88
68197;BME280;55019;49.382;11.358;2022-09-01T05:05:06;96919.19;;;14.38;79.55
68197;BME280;55019;49.382;11.358;2022-09-01T05:07:37;96926.72;;;14.47;79.17
68197;BME280;55019;49.382;11.358;2022-09-01T05:10:04;96930.22;;;14.54;79.21
68197;BME280;55019;49.382;11.358;2022-09-01T05:12:31;96913.81;;;14.39;79.23
68197;BME280;55019;49.382;11.358;2022-09-01T05:14:57;96946.00;;;14.52;79.14
68197;BME280;55019;49.382;11.358;2022-09-01T05:17:22;96924.88;;;14.55;79.32
68197;BME280;55019;49.382;11.358;2022-09-01T05:19:50;96924.88;;;14.55;78.86
68197;BME280;55019;49.382;11.358;2022-09-01T05:22:16;96936.44;;;14.67;78.21
68197;BME280;55019;49.382;11.358;2022-09-01T05:24:46;96932.00;;;14.82;77.28
68197;BME280;55019;49.382;11.358;2022-09-01T05:27:12;96924.41;;;14.81;76.83
68197;BME280;55019;49.382;11.358;2022-09-01T05:29:38;96935.69;;;14.88;76.14
68197;BME280;55019;49.382;11.358;2022-09-01T05:32:06;96928.00;;;14.80;76.46
68197;BME280;55019;49.382;11.358;2022-09-01T05:34:34;96921.41;;;14.98;76.27
68197;BME280;55019;49.382;11.358;2022-09-01T05:37:02;96944.19;;;15.11;75.75
68197;BME280;55019;49.382;11.358;2022-09-01T05:39:39;96936.84;;;15.14;75.41
68197;BME280;55019;49.382;11.358;2022-09-01T05:42:05;96933.53;;;15.06;75.06
68197;BME280;55019;49.382;11.358;2022-09-01T05:44:38;96916.75;;;15.08;74.89
68197;BME280;55019;49.382;11.358;2022-09-01T05:47:08;96924.09;;;15.19;75.37
68197;BME280;55019;49.382;11.358;2022-09-01T05:49:36;96943.47;;;15.31;74.77
68197;BME280;55019;49.382;11.358;2022-09-01T05:52:03;96955.38;;;15.40;75.50
68197;BME280;55019;49.382;11.358;2022-09-01T05:54:29;96938.47;;;15.51;73.47
68197;BME280;55019;49.382;11.358;2022-09-01T05:57:11;96940.97;;;15.59;73.88
68197;BME280;55019;49.382;11.358;2022-09-01T05:59:45;96940.50;;;15.55;73.89
68197;BME280;55019;49.382;11.358;2022-09-01T06:02:19;96940.41;;;15.63;73.38
68197;BME280;55019;49.382;11.358;2022-09-01T06:04:46;96943.31;;;15.75;72.83
68197;BME280;55019;49.382;11.358;2022-09-01T06:07:13;96943.38;;;15.81;72.26
68197;BME280;55019;49.382;11.358;2022-09-01T06:09:41;96926.69;;;15.76;71.73
68197;BME280;55019;49.382;11.358;2022-09-01T06:12:08;96930.50;;;15.73;71.85
68197;BME280;55019;49.382;11.358;2022-09-01T06:14:42;96932.34;;;15.79;72.15
68197;BME280;55019;49.382;11.358;2022-09-01T06:17:16;96939.91;;;15.95;71.68
68197;BME280;55019;49.382;11.358;2022-09-01T06:19:43;96941.13;;;15.99;71.59
68197;BME280;55019;49.382;11.358;2022-09-01T06:22:10;96925.81;;;16.10;70.51
68197;BME280;55019;49.382;11.358;2022-09-01T06:24:38;96930.25;;;16.16;70.27
68197;BME280;55019;49.382;11.358;2022-09-01T06:27:08;96960.19;;;16.20;70.51
68197;BME280;55019;49.382;11.358;2022-09-01T06:29:35;96965.72;;;16.11;70.70
68197;BME280;55019;49.382;11.358;2022-09-01T06:32:05;96941.66;;;16.09;70.21
68197;BME280;55019;49.382;11.358;2022-09-01T06:34:34;96959.88;;;16.30;70.12
68197;BME280;55019;49.382;11.358;2022-09-01T06:37:00;96950.81;;;16.26;70.53
68197;BME280;55019;49.382;11.358;2022-09-01T06:39:26;96942.28;;;16.11;69.69
68197;BME280;55019;49.382;11.358;2022-09-01T06:41:51;96945.59;;;16.26;70.12
68197;BME280;55019;49.382;11.358;2022-09-01T06:44:26;96954.41;;;16.25;69.67
68197;BME280;55019;49.382;11.358;2022-09-01T06:46:52;96967.44;;;16.46;70.13
68197;BME280;55019;49.382;11.358;2022-09-01T06:49:19;96950.00;;;16.53;68.20
68197;BME280;55019;49.382;11.358;2022-09-01T06:51:45;96939.34;;;16.48;69.28
68197;BME280;55019;49.382;11.358;2022-09-01T06:54:12;96968.84;;;16.76;69.11
68197;BME280;55019;49.382;11.358;2022-09-01T06:56:39;96953.19;;;16.76;68.37
68197;BME280;55019;49.382;11.358;2022-09-01T06:59:06;96981.97;;;16.89;68.20
68197;BME280;55019;49.382;11.358;2022-09-01T07:01:32;96956.63;;;16.83;68.08
68197;BME280;55019;49.382;11.358;2022-09-01T07:03:58;96957.31;;;16.98;67.65
68197;BME280;55019;49.382;11.358;2022-09-01T07:06:24;96967.84;;;17.11;67.85
68197;BME280;55019;49.382;11.358;2022-09-01T07:08:54;96964.69;;;17.28;66.40
68197;BME280;55019;49.382;11.358;2022-09-01T07:11:26;96985.91;;;17.52;66.22
68197;BME280;55019;49.382;11.358;2022-09-01T07:13:58;96972.84;;;17.52;64.50
68197;BME280;55019;49.382;11.358;2022-09-01T07:16:27;96990.09;;;17.41;65.34
68197;BME280;55019;49.382;11.358;2022-09-01T07:18:56;96986.59;;;17.67;65.18
68197;BME280;55019;49.382;11.358;2022-09-01T07:21:23;96984.53;;;17.63;65.15
68197;BME280;55019;49.382;11.358;2022-09-01T07:23:49;96999.03;;;17.65;64.60
68197;BME280;55019;49.382;11.358;2022-09-01T07:26:17;96984.94;;;17.60;65.66
68197;BME280;55019;49.382;11.358;2022-09-01T07:28:48;96997.09;;;17.87;65.11
68197;BME280;55019;49.382;11.358;2022-09-01T07:31:25;96975.16;;;17.94;64.35
68197;BME280;55019;49.382;11.358;2022-09-01T07:33:53;96994.31;;;18.14;63.75
68197;BME280;55019;49.382;11.358;2022-09-01T07:36:21;96992.09;;;18.18;63.97
68197;BME280;55019;49.382;11.358;2022-09-01T07:38:47;96992.31;;;18.36;62.71
68197;BME280;55019;49.382;11.358;2022-09-01T07:41:19;96997.19;;;18.52;63.45
68197;BME280;55019;49.382;11.358;2022-09-01T07:43:46;97010.25;;;18.78;61.80
68197;BME280;55019;49.382;11.358;2022-09-01T07:46:23;97001.75;;;19.01;61.18
68197;BME280;55019;49.382;11.358;2022-09-01T07:48:52;96989.63;;;19.07;61.09
68197;BME280;55019;49.382;11.358;2022-09-01T07:51:20;96988.84;;;19.06;59.98
68197;BME280;55019;49.382;11.358;2022-09-01T07:53:47;96978.16;;;19.21;60.41
68197;BME280;55019;49.382;11.358;2022-09-01T07:56:15;96993.28;;;19.63;59.04
68197;BME280;55019;49.382;11.358;2022-09-01T07:58:43;96974.31;;;19.67;58.54
68197;BME280;55019;49.382;11.358;2022-09-01T08:01:14;97001.78;;;19.65;58.46
68197;BME280;55019;49.382;11.358;2022-09-01T08:03:44;96977.13;;;19.72;57.81
68197;BME280;55019;49.382;11.358;2022-09-01T08:06:12;97010.00;;;20.67;56.49
68197;BME280;55019;49.382;11.358;2022-09-01T08:08:39;96993.78;;;21.19;54.08
68197;BME280;55019;49.382;11.358;2022-09-01T08:11:05;96999.72;;;21.80;52.20
68197;BME280;55019;49.382;11.358;2022-09-01T08:13:33;96997.00;;;21.87;50.97
68197;BME280;55019;49.382;11.358;2022-09-01T08:16:10;96997.19;;;22.03;50.77
68197;BME280;55019;49.382;11.358;2022-09-01T08:18:35;96992.34;;;22.00;50.53
68197;BME280;55019;49.382;11.358;2022-09-01T08:21:09;97011.97;;;22.45;49.54
68197;BME280;55019;49.382;11.358;2022-09-01T08:23:34;96993.16;;;22.30;49.90
68197;BME280;55019;49.382;11.358;2022-09-01T08:26:14;97016.03;;;22.70;48.96
68197;BME280;55019;49.382;11.358;2022-09-01T08:28:43;97006.84;;;23.42;46.91
68197;BME280;55019;49.382;11.358;2022-09-01T08:31:10;97003.91;;;23.15;47.10
68197;BME280;55019;49.382;11.358;2022-09-01T08:33:43;97012.94;;;23.31;47.20
68197;BME280;55019;49.382;11.358;2022-09-01T08:36:11;97002.28;;;23.76;45.79
68197;BME280;55019;49.382;11.358;2022-09-01T08:38:37;97008.16;;;23.67;46.10
68197;BME280;55019;49.382;11.358;2022-09-01T08:41:30;97013.53;;;23.83;45.42
68197;BME280;55019;49.382;11.358;2022-09-01T08:44:57;97001.13;;;23.72;45.38
68197;BME280;55019;49.382;11.358;2022-09-01T08:47:03;97009.41;;;23.64;45.94
68197;BME280;55019;49.382;11.358;2022-09-01T08:49:33;96996.66;;;23.34;46.88
68197;BME280;55019;49.382;11.358;2022-09-01T08:52:36;97016.47;;;22.90;46.78
68197;BME280;55019;49.382;11.358;2022-09-01T08:55:45;97001.94;;;23.11;47.61
68197;BME280;55019;49.382;11.358;2022-09-01T08:58:15;97024.03;;;22.75;48.03
68197;BME280;55019;49.382;11.358;2022-09-01T09:00:44;97008.19;;;21.82;49.47
68197;BME280;55019;49.382;11.358;2022-09-01T09:06:19;97027.53;;;20.73;53.57
68197;BME280;55019;49.382;11.358;2022-09-01T09:08:54;97006.75;;;20.65;52.73
68197;BME280;55019;49.382;11.358;2022-09-01T09:16:42;97022.97;;;21.29;50.97
68197;BME280;55019;49.382;11.358;2022-09-01T09:19:36;97023.13;;;21.70;49.50
68197;BME280;55019;49.382;11.358;2022-09-01T09:22:09;97021.25;;;22.47;46.99
68197;BME280;55019;49.382;11.358;2022-09-01T09:25:05;97017.16;;;22.22;47.51
68197;BME280;55019;49.382;11.358;2022-09-01T09:27:35;97009.38;;;23.25;43.58
68197;BME280;55019;49.382;11.358;2022-09-01T09:35:25;97017.41;;;23.92;42.52
68197;BME280;55019;49.382;11.358;2022-09-01T09:37:51;97009.56;;;23.58;43.80
68197;BME280;55019;49.382;11.358;2022-09-01T09:40:24;97011.88;;;23.43;43.56
68197;BME280;55019;49.382;11.358;2022-09-01T09:45:24;97014.94;;;22.37;45.82
68197;BME280;55019;49.382;11.358;2022-09-01T09:47:52;97018.34;;;21.97;46.88
68197;BME280;55019;49.382;11.358;2022-09-01T09:50:37;97018.66;;;22.82;45.11
68197;BME280;55019;49.382;11.358;2022-09-01T09:53:30;97003.53;;;23.85;42.85
68197;BME280;55019;49.382;11.358;2022-09-01T09:56:00;97009.03;;;22.99;44.15
68197;BME280;55019;49.382;11.358;2022-09-01T09:58:39;97006.03;;;22.61;44.20
68197;BME280;55019;49.382;11.358;2022-09-01T10:01:13;97011.16;;;22.44;44.61
68197;BME280;55019;49.382;11.358;2022-09-01T10:03:53;97003.66;;;21.89;46.51
68197;BME280;55019;49.382;11.358;2022-09-01T10:06:40;97007.75;;;21.13;47.07
68197;BME280;55019;49.382;11.358;2022-09-01T10:11:43;96993.28;;;20.86;46.61
68197;BME280;55019;49.382;11.358;2022-09-01T10:14:42;96987.38;;;20.91;47.89
68197;BME280;55019;49.382;11.358;2022-09-01T10:17:15;96977.81;;;21.14;48.68
68197;BME280;55019;49.382;11.358;2022-09-01T10:19:57;96976.84;;;21.81;46.61
68197;BME280;55019;49.382;11.358;2022-09-01T10:22:31;96977.56;;;23.54;43.72
68197;BME280;55019;49.382;11.358;2022-09-01T10:24:58;96991.06;;;25.67;39.33
68197;BME280;55019;49.382;11.358;2022-09-01T10:27:29;96988.38;;;25.62;35.92
68197;BME280;55019;49.382;11.358;2022-09-01T10:30:07;96977.97;;;26.87;34.89
68197;BME280;55019;49.382;11.358;2022-09-01T10:32:57;96990.84;;;25.90;36.48
68197;BME280;55019;49.382;11.358;2022-09-01T10:35:32;96989.56;;;24.46;39.40
68197;BME280;55019;49.382;11.358;2022-09-01T10:38:05;96976.25;;;23.41;41.84
68197;BME280;55019;49.382;11.358;2022-09-01T10:43:21;97006.28;;;22.59;44.46
68197;BME280;55019;49.382;11.358;2022-09-01T10:45:46;96970.47;;;22.29;45.63
68197;BME280;55019;49.382;11.358;2022-09-01T10:48:26;96996.97;;;22.16;45.86
68197;BME280;55019;49.382;11.358;2022-09-01T10:56:41;96983.88;;;21.98;46.61
68197;BME280;55019;49.382;11.358;2022-09-01T10:59:25;96976.16;;;22.78;44.22
68197;BME280;55019;49.382;11.358;2022-09-01T11:07:00;97004.03;;;22.04;46.59
68197;BME280;55019;49.382;11.358;2022-09-01T11:09:42;97005.84;;;21.92;46.70
68197;BME280;55019;49.382;11.358;2022-09-01T11:12:36;97002.16;;;21.64;47.27
68197;BME280;55019;49.382;11.358;2022-09-01T11:15:33;97004.69;;;21.52;47.17
68197;BME280;55019;49.382;11.358;2022-09-01T11:17:59;97009.88;;;21.59;46.96
68197;BME280;55019;49.382;11.358;2022-09-01T11:20:26;97004.63;;;21.59;45.54
68197;BME280;55019;49.382;11.358;2022-09-01T11:23:12;97005.56;;;21.46;45.54
68197;BME280;55019;49.382;11.358;2022-09-01T11:25:45;97001.91;;;21.47;45.96
68197;BME280;55019;49.382;11.358;2022-09-01T11:30:58;97011.34;;;21.73;45.42
68197;BME280;55019;49.382;11.358;2022-09-01T11:36:14;96983.81;;;21.75;44.70
68197;BME280;55019;49.382;11.358;2022-09-01T11:38:46;97006.16;;;21.84;46.27
68197;BME280;55019;49.382;11.358;2022-09-01T11:44:29;96996.47;;;21.67;46.22
68197;BME280;55019;49.382;11.358;2022-09-01T11:47:02;96985.63;;;21.75;46.69
68197;BME280;55019;49.382;11.358;2022-09-01T11:49:38;96998.53;;;21.94;46.29
68197;BME280;55019;49.382;11.358;2022-09-01T11:52:05;96983.38;;;21.78;46.70
68197;BME280;55019;49.382;11.358;2022-09-01T11:54:40;96992.44;;;21.93;46.29
68197;BME280;55019;49.382;11.358;2022-09-01T11:57:37;96973.44;;;21.80;46.21
68197;BME280;55019;49.382;11.358;2022-09-01T12:00:10;96979.44;;;21.98;46.12
68197;BME280;55019;49.382;11.358;2022-09-01T12:02:51;96971.94;;;22.13;46.03
68197;BME280;55019;49.382;11.358;2022-09-01T12:05:30;96966.53;;;22.38;45.51
68197;BME280;55019;49.382;11.358;2022-09-01T12:07:56;96968.94;;;22.51;46.45
68197;BME280;55019;49.382;11.358;2022-09-01T12:13:01;96975.03;;;22.86;42.76
68197;BME280;55019;49.382;11.358;2022-09-01T12:15:27;96990.00;;;22.51;43.70
68197;BME280;55019;49.382;11.358;2022-09-01T12:21:07;96977.81;;;22.27;44.08
68197;BME280;55019;49.382;11.358;2022-09-01T12:23:34;96976.16;;;22.78;43.73
68197;BME280;55019;49.382;11.358;2022-09-01T12:26:13;96971.00;;;23.18;42.54
68197;BME280;55019;49.382;11.358;2022-09-01T12:28:42;96954.59;;;23.27;43.07
68197;BME280;55019;49.382;11.358;2022-09-01T12:31:15;96966.69;;;23.90;40.36
68197;BME280;55019;49.382;11.358;2022-09-01T12:33:42;96965.03;;;23.61;40.57
68197;BME280;55019;49.382;11.358;2022-09-01T12:36:26;96949.94;;;23.85;39.55
68197;BME280;55019;49.382;11.358;2022-09-01T12:39:22;96950.94;;;23.95;40.49
68197;BME280;55019;49.382;11.358;2022-09-01T12:42:23;96936.88;;;23.78;39.68
68197;BME280;55019;49.382;11.358;2022-09-01T12:44:59;96939.97;;;23.87;40.42
68197;BME280;55019;49.382;11.358;2022-09-01T12:52:46;96952.19;;;24.21;39.62
68197;BME280;55019;49.382;11.358;2022-09-01T12:55:20;96932.31;;;24.18;39.56
68197;BME280;55019;49.382;11.358;2022-09-01T12:58:18;96941.13;;;24.07;38.63
68197;BME280;55019;49.382;11.358;2022-09-01T13:01:00;96943.38;;;24.32;37.90
68197;BME280;55019;49.382;11.358;2022-09-01T13:03:31;96946.44;;;24.40;38.13
68197;BME280;55019;49.382;11.358;2022-09-01T13:05:58;96937.75;;;23.95;37.82
68197;BME280;55019;49.382;11.358;2022-09-01T13:08:31;96941.34;;;23.89;39.36
68197;BME280;55019;49.382;11.358;2022-09-01T13:11:09;96933.69;;;23.76;38.90
68197;BME280;55019;49.382;11.358;2022-09-01T13:13:35;96924.03;;;24.26;38.05
68197;BME280;55019;49.382;11.358;2022-09-01T13:16:02;96922.25;;;25.19;37.10
68197;BME280;55019;49.382;11.358;2022-09-01T13:18:38;96914.81;;;24.78;37.37
68197;BME280;55019;49.382;11.358;2022-09-01T13:21:07;96925.84;;;25.13;35.35
68197;BME280;55019;49.382;11.358;2022-09-01T13:23:33;96930.75;;;24.83;36.86
68197;BME280;55019;49.382;11.358;2022-09-01T13:25:58;96928.66;;;24.69;37.13
68197;BME280;55019;49.382;11.358;2022-09-01T13:28:25;96933.47;;;24.72;36.51
68197;BME280;55019;49.382;11.358;2022-09-01T13:30:57;96929.13;;;25.20;36.65
68197;BME280;55019;49.382;11.358;2022-09-01T13:33:27;96909.47;;;25.16;34.96
68197;BME280;55019;49.382;11.358;2022-09-01T13:35:53;96908.19;;;24.59;35.86
68197;BME280;55019;49.382;11.358;2022-09-01T13:38:20;96904.81;;;24.47;38.04
68197;BME280;55019;49.382;11.358;2022-09-01T13:40:47;96909.16;;;24.91;37.18
68197;BME280;55019;49.382;11.358;2022-09-01T13:43:15;96894.91;;;25.13;37.09
68197;BME280;55019;49.382;11.358;2022-09-01T13:45:41;96900.31;;;25.66;36.95
68197;BME280;55019;49.382;11.358;2022-09-01T13:48:08;96897.69;;;25.45;36.19
68197;BME280;55019;49.382;11.358;2022-09-01T13:50:34;96914.44;;;25.29;34.60
68197;BME280;55019;49.382;11.358;2022-09-01T13:53:00;96892.72;;;24.68;37.10
68197;BME280;55019;49.382;11.358;2022-09-01T13:55:28;96904.94;;;24.90;36.18
68197;BME280;55019;49.382;11.358;2022-09-01T13:57:54;96890.19;;;24.94;36.20
68197;BME280;55019;49.382;11.358;2022-09-01T14:00:24;96909.28;;;24.63;34.10
68197;BME280;55019;49.382;11.358;2022-09-01T14:02:53;96907.03;;;23.89;33.46
68197;BME280;55019;49.382;11.358;2022-09-01T14:05:23;96908.44;;;23.25;37.83
68197;BME280;55019;49.382;11.358;2022-09-01T14:07:50;96908.69;;;23.00;37.04
68197;BME280;55019;49.382;11.358;2022-09-01T14:10:17;96882.81;;;22.63;37.55
68197;BME280;55019;49.382;11.358;2022-09-01T14:12:44;96909.03;;;22.58;36.81
68197;BME280;55019;49.382;11.358;2022-09-01T14:15:11;96912.72;;;22.57;37.43
68197;BME280;55019;49.382;11.358;2022-09-01T14:17:41;96890.25;;;22.20;38.60
68197;BME280;55019;49.382;11.358;2022-09-01T14:20:15;96888.38;;;22.09;39.74
68197;BME280;55019;49.382;11.358;2022-09-01T14:22:42;96897.50;;;21.95;39.95
68197;BME280;55019;49.382;11.358;2022-09-01T14:25:08;96902.66;;;21.90;40.38
68197;BME280;55019;49.382;11.358;2022-09-01T14:27:35;96916.50;;;21.97;41.03
68197;BME280;55019;49.382;11.358;2022-09-01T14:30:00;96909.06;;;21.94;40.80
68197;BME280;55019;49.382;11.358;2022-09-01T14:32:26;96918.94;;;22.10;40.00
68197;BME280;55019;49.382;11.358;2022-09-01T14:34:53;96916.50;;;21.97;41.88
68197;BME280;55019;49.382;11.358;2022-09-01T14:37:19;96917.81;;;22.17;40.56
68197;BME280;55019;49.382;11.358;2022-09-01T14:39:53;96905.78;;;21.98;40.86
68197;BME280;55019;49.382;11.358;2022-09-01T14:42:21;96882.72;;;21.71;40.90
68197;BME280;55019;49.382;11.358;2022-09-01T14:44:53;96890.81;;;21.70;41.47
68197;BME280;55019;49.382;11.358;2022-09-01T14:47:18;96872.75;;;21.44;42.12
68197;BME280;55019;49.382;11.358;2022-09-01T14:49:47;96860.84;;;21.41;42.02
68197;BME280;55019;49.382;11.358;2022-09-01T14:52:15;96882.22;;;21.63;41.36
68197;BME280;55019;49.382;11.358;2022-09-01T14:54:41;96864.25;;;21.60;41.24
68197;BME280;55019;49.382;11.358;2022-09-01T14:57:07;96895.94;;;22.17;39.46
68197;BME280;55019;49.382;11.358;2022-09-01T14:59:34;96900.47;;;22.62;39.43
68197;BME280;55019;49.382;11.358;2022-09-01T15:01:59;96880.97;;;22.29;39.19
68197;BME280;55019;49.382;11.358;2022-09-01T15:04:25;96890.28;;;22.43;39.56
68197;BME280;55019;49.382;11.358;2022-09-01T15:06:52;96888.06;;;22.28;40.00
68197;BME280;55019;49.382;11.358;2022-09-01T15:09:18;96889.09;;;22.27;39.58
68197;BME280;55019;49.382;11.358;2022-09-01T15:11:44;96880.16;;;22.17;40.09
68197;BME280;55019;49.382;11.358;2022-09-01T15:14:10;96892.88;;;22.20;39.99
68197;BME280;55019;49.382;11.358;2022-09-01T15:16:36;96851.28;;;21.88;39.84
68197;BME280;55019;49.382;11.358;2022-09-01T15:19:11;96903.47;;;22.02;40.18
68197;BME280;55019;49.382;11.358;2022-09-01T15:21:38;96894.25;;;21.70;40.47
68197;BME280;55019;49.382;11.358;2022-09-01T15:24:06;96894.09;;;21.65;40.57
68197;BME280;55019;49.382;11.358;2022-09-01T15:26:33;96890.91;;;21.63;39.99
68197;BME280;55019;49.382;11.358;2022-09-01T15:28:59;96887.66;;;21.50;41.40
68197;BME280;55019;49.382;11.358;2022-09-01T15:31:27;96877.34;;;21.48;40.25
68197;BME280;55019;49.382;11.358;2022-09-01T15:33:56;96887.41;;;21.51;40.87
68197;BME280;55019;49.382;11.358;2022-09-01T15:36:25;96881.88;;;21.41;41.66
68197;BME280;55019;49.382;11.358;2022-09-01T15:38:51;96887.59;;;21.38;41.65
68197;BME280;55019;49.382;11.358;2022-09-01T15:41:26;96868.94;;;21.10;42.04
68197;BME280;55019;49.382;11.358;2022-09-01T15:43:53;96866.16;;;21.05;42.46
68197;BME280;55019;49.382;11.358;2022-09-01T15:46:19;96858.91;;;20.89;42.34
68197;BME280;55019;49.382;11.358;2022-09-01T15:48:47;96871.00;;;20.90;43.83
68197;BME280;55019;49.382;11.358;2022-09-01T15:51:34;96889.22;;;21.03;43.26
68197;BME280;55019;49.382;11.358;2022-09-01T15:54:03;96888.59;;;21.08;43.31
68197;BME280;55019;49.382;11.358;2022-09-01T15:56:36;96867.91;;;21.11;43.06
68197;BME280;55019;49.382;11.358;2022-09-01T15:59:06;96854.94;;;20.98;43.97
68197;BME280;55019;49.382;11.358;2022-09-01T16:01:40;96882.78;;;21.17;44.05
68197;BME280;55019;49.382;11.358;2022-09-01T16:04:11;96864.09;;;20.96;43.48
68197;BME280;55019;49.382;11.358;2022-09-01T16:06:39;96869.66;;;20.81;43.83
68197;BME280;55019;49.382;11.358;2022-09-01T16:09:07;96880.03;;;20.76;44.51
68197;BME280;55019;49.382;11.358;2022-09-01T16:11:41;96875.78;;;20.57;44.74
68197;BME280;55019;49.382;11.358;2022-09-01T16:14:09;96864.88;;;20.36;45.07
68197;BME280;55019;49.382;11.358;2022-09-01T16:17:14;96854.16;;;20.20;45.44
68197;BME280;55019;49.382;11.358;2022-09-01T16:20:02;96862.94;;;20.32;45.92
68197;BME280;55019;49.382;11.358;2022-09-01T16:23:27;96863.34;;;20.29;45.79
68197;BME280;55019;49.382;11.358;2022-09-01T16:25:45;96873.31;;;20.20;46.53
68197;BME280;55019;49.382;11.358;2022-09-01T16:28:32;96865.88;;;20.17;46.24
68197;BME280;55019;49.382;11.358;2022-09-01T16:33:35;96884.03;;;20.19;46.30
68197;BME280;55019;49.382;11.358;2022-09-01T16:39:18;96882.25;;;20.13;46.06
68197;BME280;55019;49.382;11.358;2022-09-01T16:41:58;96885.88;;;20.12;46.95
68197;BME280;55019;49.382;11.358;2022-09-01T16:45:09;96884.66;;;19.83;47.54
68197;BME280;55019;49.382;11.358;2022-09-01T16:50:24;96870.75;;;19.58;47.71
68197;BME280;55019;49.382;11.358;2022-09-01T16:56:13;96854.38;;;19.32;49.61
68197;BME280;55019;49.382;11.358;2022-09-01T16:59:02;96869.66;;;19.35;48.86
68197;BME280;55019;49.382;11.358;2022-09-01T17:07:03;96874.16;;;19.28;48.57
68197;BME280;55019;49.382;11.358;2022-09-01T17:09:41;96847.25;;;18.95;50.71